Main page
METAR-TAF:

METAR-TAF

Airports :

RAF Shawbury

Shawbury, England

latitude: 52-48N, longitude: 002-40W, elevation: 76 m

Current weather observation

The report was made 1 hour and 3 minutes ago, at 17:50 UTC
Wind 11 kt from the South/Southwest
Temperature 11°C
Humidity 87%
Pressure 991 hPa
Visibility 10 km or more

METAR: EGOS 281750Z AUTO 20011KT 9999 BKN019/// SCT028/// 11/09 Q0991

Time: 18:53 (18:53 UTC)

Forecast

The report was made 2 hours and 58 minutes ago, at 15:55 UTC
Forecast valid from 28 at 15 UTC to 28 at 18 UTC
Wind 12 kt from the South
Visibility 10 km or more
Broken clouds at a height of 1800 ft
Temporary
from 28 at 15 UTC to 28 at 18 UTC
Visibility: 6000 m
Broken clouds at a height of 1300 ft
light rain, drizzle
Probability 30% :
Temporary
from 28 at 16 UTC to 28 at 18 UTC
Wind 15 kt from the South/Southwest with gusts up to 25 kt

TAF: EGOS 281555Z 2815/2818 18012KT 9999 BKN018 TEMPO 2815/2818 6000 -RADZ BKN013 PROB30 TEMPO 2816/2818 20015G25KT

Weather observations and forecasts of more than 4000 airports (METAR and TAF reports).

The available stations are represented by yellow and red dots on the map.

Hover mouse over dot to see the name of the station.

Then click to see weather observations and forecasts.

To change the map : click on the green buttons with a black cross to zoom in, on the green button with a dash to zoom out, or on the green arrows for adjacent maps.


METAR-TAF: